Nearby METAR Reports


KEDC - Austin Exec, Texas, USA
Distance from station: SW 16mi, 25km
Updated: Thu, 18-Oct-2018 9:15pm CDT
Overcast
Overcast
 Wind from NNE
Wind: NNE 8 mph , 13 km/h
Temperature: 59°F , 15°C
Dew Point: 55°F , 13°C
Humidity: 88%
Barometer: 30.26 inHg , 1024.7 hPa
Clouds: Overcast
Visibility: 10 miles , 16 km
Cloud details: Overcast 1900 ft
2018/10/19 02:15 KEDC 190215Z AUTO 02007KT 10SM OVC019 15/13 A3026 RMK AO2
KGTU - Georgetown, Texas, USA
Distance from station: WNW 17mi, 28km
Updated: Thu, 18-Oct-2018 8:56pm CDT
Overcast
Overcast
 Wind from N
Wind: N 7 mph , 11 km/h
Temperature: 59°F , 15°C
Dew Point: 55°F , 13°C
Humidity: 88%
Barometer: 30.28 inHg , 1025.4 hPa
Clouds: Overcast
Visibility: 10 miles , 16 km
Cloud details: Overcast 1600 ft
2018/10/19 01:56 KGTU 190156Z 36006KT 10SM OVC016 15/13 A3028 RMK AO2 SLP252 T01500133
 
KATT - Austin/Mabry, Texas, USA
Distance from station: SW 28mi, 45km
Updated: Thu, 18-Oct-2018 8:51pm CDT
Overcast
Overcast
 Wind from N
Wind: N 3 mph , 6 km/h
Temperature: 61°F , 16°C
Dew Point: 55°F , 13°C
Humidity: 83%
Barometer: 30.26 inHg , 1024.7 hPa
Clouds: Overcast
Visibility: 10 miles , 16 km
Cloud details: Overcast 1700 ft
2018/10/19 01:51 KATT 190151Z AUTO 36003KT 10SM OVC017 16/13 A3026 RMK AO2 SLP246 T01560133
KAUS - Austin, Texas, USA
Distance from station: SSW 32mi, 51km
Updated: Thu, 18-Oct-2018 8:53pm CDT
Overcast
Overcast
 Wind from N
Wind: N 8 mph , 13 km/h
Temperature: 61°F , 16°C
Dew Point: 57°F , 14°C
Humidity: 88%
Barometer: 30.25 inHg , 1024.4 hPa
Clouds: Overcast
Visibility: 10 miles , 16 km
Cloud details: Overcast 1800 ft
2018/10/19 01:53 KAUS 190153Z 35007KT 10SM OVC018 16/14 A3025 RMK AO2 SLP240 T01610144
 
KRYW - Lago Vista, Texas, USA
Distance from station: W 33mi, 54km
Updated: Thu, 18-Oct-2018 9:15pm CDT
Mist, Overcast
Mist, Overcast
 Wind from NE
Wind: NE 8 mph , 13 km/h
Temperature: 57°F , 14°C
Dew Point: 57°F , 14°C
Humidity: 100%
Barometer: 30.26 inHg , 1024.7 hPa
Summary: Mist
Clouds: Overcast
Visibility: 5 miles , 8 km
Cloud details: Partly Cloudy 400 ft
Overcast 1000 ft
2018/10/19 02:15 KRYW 190215Z AUTO 04007KT 5SM BR SCT004 OVC010 14/14 A3026 RMK AO2 T01400140
KILE - Killeen Muni, Texas, USA
Distance from station: NNW 37mi, 59km
Updated: Thu, 18-Oct-2018 8:56pm CDT
Overcast
Overcast
 Wind from N
Wind: N 3 mph , 6 km/h
Barometer: 30.28 inHg , 1025.4 hPa
Clouds: Overcast
Visibility: 10 miles , 16 km
Cloud details: Overcast 1900 ft
2018/10/19 01:56 KILE 190156Z AUTO 36003KT 10SM OVC019 A3028 RMK AO2 SLPNO FZRANO $
 
KTPL - Temple/Miller, Texas, USA
Distance from station: N 38mi, 61km
Updated: Thu, 18-Oct-2018 8:51pm CDT
Overcast
Overcast
 Wind from NNW
Wind: NNW 3 mph , 6 km/h
Temperature: 59°F , 15°C
Dew Point: 57°F , 14°C
Humidity: 94%
Barometer: 30.27 inHg , 1025.1 hPa
Clouds: Overcast
Visibility: 10 miles , 16 km
Cloud details: Overcast 2000 ft
2018/10/19 01:51 KTPL 190151Z AUTO 34003KT 10SM OVC020 15/14 A3027 RMK AO2 SLPNO T01500144
KGYB - Giddings-Lee, Texas, USA
Distance from station: SE 39mi, 62km
Updated: Thu, 18-Oct-2018 9:15pm CDT
Overcast
Overcast
 Wind from NE
Wind: NE 3 mph , 6 km/h
Temperature: 61°F , 16°C
Dew Point: 57°F , 14°C
Humidity: 88%
Barometer: 30.25 inHg , 1024.4 hPa
Clouds: Overcast
Visibility: 10 miles , 16 km
Cloud details: Mostly Cloudy 1800 ft
Mostly Cloudy 2900 ft
Overcast 4600 ft
2018/10/19 02:15 KGYB 190215Z AUTO 04003KT 10SM BKN018 BKN029 OVC046 16/14 A3025 RMK AO2 T01640136
 
KGRK - Gray/Ft Hood, Texas, USA
Distance from station: NW 42mi, 67km
Updated: Thu, 18-Oct-2018 8:58pm CDT
Overcast
Overcast
 Wind from N
Wind: N 7 mph , 11 km/h
Temperature: 57°F , 14°C
Dew Point: 55°F , 13°C
Humidity: 94%
Barometer: 30.26 inHg , 1024.7 hPa
Clouds: Overcast
Visibility: 10 miles , 16 km
Cloud details: Overcast 1800 ft
2018/10/19 01:58 KGRK 190158Z AUTO 36006KT 10SM OVC018 14/13 A3026 RMK AO2 SLP246 T01370127
KHLR - Ft Hood/Killeen, Texas, USA
Distance from station: NNW 42mi, 67km
Updated: Thu, 18-Oct-2018 8:58pm CDT
Overcast
Overcast
 Wind from N
Wind: N 5 mph , 7 km/h
Temperature: 57°F , 14°C
Dew Point: 55°F , 13°C
Humidity: 94%
Barometer: 30.24 inHg , 1024 hPa
Clouds: Overcast
Visibility: 10 miles , 16 km
Cloud details: Overcast 1700 ft
2018/10/19 01:58 KHLR 190158Z AUTO 35004KT 10SM OVC017 14/13 A3024 RMK AO2 SLP238 T01410131
 
KRWV - Caldwell, Texas, USA
Distance from station: E 43mi, 69km
Updated: Thu, 18-Oct-2018 9:15pm CDT
Overcast
Overcast
 Wind from NNE
Wind: NNE 5 mph , 7 km/h
Temperature: 63°F , 17°C
Dew Point: 59°F , 15°C
Humidity: 88%
Barometer: 30.26 inHg , 1024.7 hPa
Clouds: Overcast
Visibility: 10 miles , 16 km
Cloud details: Overcast 2000 ft
2018/10/19 02:15 KRWV 190215Z AUTO 02004KT 10SM OVC020 17/15 A3026 RMK AO2 T01670146
KBMQ - Burnet, Texas, USA
Distance from station: WNW 50mi, 80km
Updated: Thu, 18-Oct-2018 8:53pm CDT
Mist, Overcast
Mist, Overcast
 Wind from NE
Wind: NE 8 mph , 13 km/h
Temperature: 55°F , 13°C
Dew Point: 55°F , 13°C
Humidity: 100%
Barometer: 30.29 inHg , 1025.7 hPa
Summary: Mist
Clouds: Overcast
Visibility: 4 miles , 6 km
Cloud details: Overcast 500 ft
2018/10/19 01:53 KBMQ 190153Z AUTO 05007KT 4SM BR OVC005 13/13 A3029 RMK AO2 RAE53 SLP250 P0001 T01330128